createdAt,value
2022-09-02T00:00:35.654Z,7.16
2022-09-02T00:03:05.806Z,7.36
2022-09-02T00:05:34.208Z,7.07
2022-09-02T00:08:03.130Z,7.03
2022-09-02T00:10:32.038Z,7.08
2022-09-02T00:12:59.865Z,6.90
2022-09-02T00:15:27.611Z,7.02
2022-09-02T00:17:55.028Z,6.98
2022-09-02T00:20:32.192Z,7.00
2022-09-02T00:23:01.240Z,7.10
2022-09-02T00:25:28.955Z,6.85
2022-09-02T00:27:56.533Z,7.08
2022-09-02T00:30:24.667Z,6.98
2022-09-02T00:32:51.885Z,7.06
2022-09-02T00:35:29.454Z,7.09
2022-09-02T00:37:57.954Z,6.88
2022-09-02T00:40:24.910Z,7.06
2022-09-02T00:42:55.515Z,7.17
2022-09-02T00:45:30.366Z,7.31
2022-09-02T00:48:05.921Z,7.47
2022-09-02T00:53:26.813Z,7.66
2022-09-02T00:56:08.470Z,7.52
2022-09-02T00:58:52.083Z,7.67
2022-09-02T01:01:25.488Z,7.35
2022-09-02T01:03:55.880Z,7.26
2022-09-02T01:06:27.944Z,7.34
2022-09-02T01:09:07.382Z,7.15
2022-09-02T01:11:56.173Z,7.28
2022-09-02T01:14:28.804Z,6.93
2022-09-02T01:17:04.851Z,7.00
2022-09-02T01:19:48.200Z,7.08
2022-09-02T01:22:33.787Z,7.06
2022-09-02T01:25:12.168Z,7.19
2022-09-02T01:30:50.590Z,7.25
2022-09-02T01:33:39.157Z,7.32
2022-09-02T01:36:15.954Z,7.48
2022-09-02T01:38:46.832Z,7.56
2022-09-02T01:41:49.487Z,7.58
2022-09-02T01:44:48.252Z,7.75
2022-09-02T01:47:50.469Z,7.76
2022-09-02T01:50:26.256Z,7.87
2022-09-02T01:53:00.641Z,7.74
2022-09-02T01:55:47.482Z,7.84
2022-09-02T02:35:26.444Z,7.70
2022-09-02T02:37:54.336Z,7.60
2022-09-02T02:41:17.425Z,7.79
2022-09-02T02:43:56.288Z,7.79
2022-09-02T02:50:20.021Z,7.90
2022-09-02T02:52:51.788Z,8.06
2022-09-02T02:55:19.185Z,8.00
2022-09-02T03:04:47.125Z,7.74
2022-09-02T03:10:39.149Z,7.58
2022-09-02T03:13:56.158Z,7.51
2022-09-02T03:16:27.522Z,7.50
2022-09-02T03:19:01.039Z,7.54
2022-09-02T03:21:38.822Z,7.45
2022-09-02T03:24:30.100Z,7.54
2022-09-02T03:28:08.182Z,7.23
2022-09-02T03:33:51.379Z,7.46
2022-09-02T03:36:40.753Z,7.49
2022-09-02T03:39:47.318Z,7.19
2022-09-02T03:48:13.353Z,7.35
2022-09-02T03:50:52.953Z,7.23
2022-09-02T03:56:15.993Z,7.15
2022-09-02T03:58:49.836Z,7.30
2022-09-02T04:01:34.378Z,7.20
2022-09-02T04:04:10.126Z,7.20
2022-09-02T04:06:39.699Z,7.26
2022-09-02T04:09:08.934Z,7.21
2022-09-02T04:20:36.342Z,7.55
2022-09-02T04:23:11.748Z,7.69
2022-09-02T04:28:35.347Z,7.55
2022-09-02T04:40:45.135Z,7.83
2022-09-02T04:46:34.342Z,7.81
2022-09-02T04:49:08.370Z,7.92
2022-09-02T04:51:45.760Z,7.87
2022-09-02T04:57:43.200Z,7.90
2022-09-02T05:00:18.009Z,8.16
2022-09-02T05:06:07.858Z,8.28
2022-09-02T05:08:47.347Z,8.36
2022-09-02T05:11:24.620Z,8.42
2022-09-02T05:14:07.581Z,8.54
2022-09-02T05:22:12.708Z,8.61
2022-09-02T05:24:44.753Z,8.80
2022-09-02T05:27:24.133Z,8.82
2022-09-02T05:30:06.903Z,8.87
2022-09-02T05:32:40.173Z,9.01
2022-09-02T05:35:13.784Z,8.96
2022-09-02T05:38:05.331Z,9.22
2022-09-02T05:40:33.137Z,9.18
2022-09-02T05:42:59.916Z,9.36
2022-09-02T05:45:26.601Z,9.38
2022-09-02T05:47:53.886Z,9.35
2022-09-02T05:50:20.916Z,9.35
2022-09-02T05:52:51.207Z,9.55
2022-09-02T05:55:21.639Z,9.58
2022-09-02T05:57:50.667Z,9.59
2022-09-02T06:00:18.199Z,9.79
2022-09-02T06:02:45.125Z,9.74
2022-09-02T06:05:12.289Z,9.86
2022-09-02T06:07:39.009Z,9.98
2022-09-02T06:10:07.625Z,9.85
2022-09-02T06:12:34.389Z,10.05
2022-09-02T06:15:01.148Z,10.05
2022-09-02T06:17:27.822Z,9.99
2022-09-02T06:19:55.170Z,10.21
2022-09-02T06:22:23.893Z,10.10
2022-09-02T06:24:52.567Z,10.25
2022-09-02T06:27:19.705Z,10.27
2022-09-02T06:29:46.373Z,10.27
2022-09-02T06:32:13.011Z,10.34
2022-09-02T06:34:41.330Z,10.45
2022-09-02T06:37:08.088Z,10.36
2022-09-02T06:39:34.941Z,10.57
2022-09-02T06:42:02.137Z,10.77
2022-09-02T06:44:29.712Z,10.65
2022-09-02T06:47:01.823Z,10.68
2022-09-02T06:49:29.225Z,10.82
2022-09-02T06:51:59.164Z,10.65
2022-09-02T06:54:26.323Z,10.77
2022-09-02T06:56:53.673Z,10.86
2022-09-02T06:59:22.195Z,10.70
2022-09-02T07:01:49.728Z,10.90
2022-09-02T07:04:36.283Z,10.87
2022-09-02T07:07:05.469Z,10.90
2022-09-02T07:09:32.229Z,11.06
2022-09-02T07:12:04.578Z,10.87
2022-09-02T07:14:31.919Z,10.99
2022-09-02T07:17:00.190Z,11.13
2022-09-02T07:19:27.440Z,11.05
2022-09-02T07:21:54.424Z,11.10
2022-09-02T07:24:21.586Z,11.07
2022-09-02T07:26:48.496Z,11.03
2022-09-02T07:29:15.995Z,11.16
2022-09-02T07:31:45.605Z,10.99
2022-09-02T07:34:13.384Z,11.04
2022-09-02T07:36:40.551Z,11.24
2022-09-02T07:39:09.763Z,11.16
2022-09-02T07:41:38.201Z,11.24
2022-09-02T07:44:05.492Z,11.31
2022-09-02T07:46:32.969Z,11.16
2022-09-02T07:49:09.154Z,11.23
2022-09-02T07:51:40.035Z,11.23
2022-09-02T07:54:08.565Z,11.17
2022-09-02T07:56:36.166Z,11.32
2022-09-02T07:59:03.472Z,11.31
2022-09-02T08:01:30.954Z,11.20
2022-09-02T08:04:00.363Z,11.38
2022-09-02T08:06:34.980Z,11.47
2022-09-02T08:09:04.709Z,11.36
2022-09-02T08:11:32.880Z,11.46
2022-09-02T08:14:00.762Z,11.60
2022-09-02T08:16:29.114Z,11.38
2022-09-02T08:18:56.142Z,11.43
2022-09-02T08:21:22.913Z,11.59
2022-09-02T08:23:51.350Z,11.52
2022-09-02T08:26:19.249Z,11.51
2022-09-02T08:28:45.936Z,11.64
2022-09-02T08:31:12.728Z,11.66
2022-09-02T08:33:39.692Z,11.53
2022-09-02T08:36:09.340Z,11.75
2022-09-02T08:38:36.869Z,11.95
2022-09-02T08:41:25.893Z,11.83
2022-09-02T08:43:56.130Z,11.98
2022-09-02T08:46:26.593Z,12.19
2022-09-02T08:48:59.582Z,12.31
2022-09-02T08:51:37.962Z,12.14
2022-09-02T08:54:12.935Z,12.33
2022-09-02T08:56:42.274Z,12.22
2022-09-02T08:59:13.100Z,12.41
2022-09-02T09:02:12.921Z,12.41
2022-09-02T09:04:50.556Z,12.57
2022-09-02T09:07:33.278Z,12.72
2022-09-02T09:10:08.708Z,12.76
2022-09-02T09:12:53.912Z,12.92
2022-09-02T09:15:38.987Z,12.87
2022-09-02T09:18:10.028Z,12.98
2022-09-02T09:20:43.016Z,12.69
2022-09-02T09:23:34.708Z,12.82
2022-09-02T09:26:27.771Z,12.60
2022-09-02T09:28:56.327Z,12.75
2022-09-02T09:31:31.518Z,12.76
2022-09-02T09:34:11.541Z,12.53
2022-09-02T09:36:41.200Z,12.78
2022-09-02T09:39:30.168Z,12.65
2022-09-02T09:42:13.576Z,12.77
2022-09-02T09:44:46.127Z,12.71
2022-09-02T09:47:25.732Z,12.72
2022-09-02T09:49:54.600Z,12.94
2022-09-02T09:52:30.972Z,12.76
2022-09-02T09:55:25.290Z,12.73
2022-09-02T09:57:54.520Z,12.68
2022-09-02T10:00:34.293Z,12.54
2022-09-02T10:03:06.872Z,12.85
2022-09-02T10:05:39.676Z,12.92
2022-09-02T10:08:20.774Z,13.07
2022-09-02T10:11:19.681Z,13.13
2022-09-02T10:13:46.405Z,12.75
2022-09-02T10:16:34.169Z,12.97
2022-09-02T10:19:03.862Z,12.88
2022-09-02T10:21:41.970Z,12.90
2022-09-02T10:24:33.899Z,13.10
2022-09-02T10:27:08.953Z,12.97
2022-09-02T10:29:48.372Z,13.12
2022-09-02T10:32:15.023Z,13.31
2022-09-02T10:34:50.859Z,13.30
2022-09-02T10:37:19.172Z,13.39
2022-09-02T10:40:10.509Z,13.55
2022-09-02T10:43:02.060Z,13.36
2022-09-02T10:45:37.520Z,13.49
2022-09-02T10:48:41.836Z,13.49
2022-09-02T10:51:14.708Z,13.35
2022-09-02T10:54:09.887Z,13.22
2022-09-02T10:57:09.561Z,13.39
2022-09-02T10:59:47.612Z,13.54
2022-09-02T11:02:38.175Z,13.52
2022-09-02T11:05:28.970Z,13.68
2022-09-02T11:07:56.304Z,13.76
2022-09-02T11:10:38.963Z,13.69
2022-09-02T11:13:25.721Z,13.83
2022-09-02T11:16:18.612Z,13.91
2022-09-02T11:18:52.083Z,13.95
2022-09-02T11:21:40.480Z,14.08
2022-09-02T11:24:20.215Z,14.18
2022-09-02T11:26:56.890Z,14.15
2022-09-02T11:29:25.226Z,14.24
2022-09-02T11:32:17.823Z,14.30
2022-09-02T11:34:53.835Z,14.22
2022-09-02T11:37:33.480Z,14.14
2022-09-02T11:40:30.493Z,14.01
2022-09-02T11:43:30.307Z,13.76
2022-09-02T11:46:35.321Z,13.93
2022-09-02T11:49:29.635Z,13.71
2022-09-02T11:52:05.641Z,13.87
2022-09-02T11:55:13.002Z,13.89
2022-09-02T11:57:41.629Z,13.76
2022-09-02T12:00:14.072Z,13.90
2022-09-02T12:02:40.868Z,13.75
2022-09-02T12:05:37.485Z,13.93
2022-09-02T12:08:35.646Z,14.10
2022-09-02T12:11:07.384Z,14.25
2022-09-02T12:16:21.192Z,14.49
2022-09-02T12:19:00.933Z,14.61
2022-09-02T12:21:28.722Z,14.64
2022-09-02T12:23:55.324Z,14.62
2022-09-02T12:26:30.883Z,14.59
2022-09-02T12:29:26.387Z,14.60
2022-09-02T12:31:56.399Z,14.57
2022-09-02T12:34:26.011Z,14.60
2022-09-02T12:37:00.882Z,14.65
2022-09-02T12:39:27.549Z,14.72
2022-09-02T12:41:57.615Z,14.81
2022-09-02T12:44:36.602Z,14.81
2022-09-02T12:47:14.920Z,14.78
2022-09-02T12:49:54.279Z,14.75
2022-09-02T12:52:46.275Z,14.74
2022-09-02T12:55:16.918Z,14.80
2022-09-02T12:57:51.369Z,14.91
2022-09-02T13:00:28.499Z,14.84
2022-09-02T13:03:25.587Z,14.82
2022-09-02T13:06:04.360Z,14.88
2022-09-02T13:08:53.254Z,14.90
2022-09-02T13:11:47.989Z,14.90
2022-09-02T13:14:24.369Z,14.45
2022-09-02T13:17:32.672Z,14.50
2022-09-02T13:20:20.396Z,14.64
2022-09-02T13:23:20.592Z,14.72
2022-09-02T13:26:00.907Z,14.72
2022-09-02T13:28:46.363Z,14.69
2022-09-02T13:31:13.166Z,14.72
2022-09-02T13:33:42.695Z,14.80
2022-09-02T13:36:09.924Z,14.89
2022-09-02T13:38:38.893Z,14.93
2022-09-02T13:41:05.956Z,14.95
2022-09-02T13:43:32.694Z,15.05
2022-09-02T13:46:02.402Z,15.09
2022-09-02T13:48:32.439Z,15.11
2022-09-02T13:51:15.368Z,15.15
2022-09-02T13:54:21.584Z,15.11
2022-09-02T13:56:38.019Z,15.06
2022-09-02T13:59:04.746Z,15.10
2022-09-02T14:01:34.986Z,15.18
2022-09-02T14:04:10.277Z,15.21
2022-09-02T14:06:43.191Z,15.22
2022-09-02T14:09:22.608Z,15.25
2022-09-02T14:11:50.145Z,15.23
2022-09-02T14:14:20.529Z,15.15
2022-09-02T14:16:47.287Z,15.18
2022-09-02T14:19:16.769Z,15.24
2022-09-02T14:21:56.631Z,15.29
2022-09-02T14:24:37.338Z,15.31
2022-09-02T14:27:06.685Z,15.31
2022-09-02T14:29:33.599Z,15.20
2022-09-02T14:32:12.790Z,15.08
2022-09-02T14:34:42.945Z,14.61
2022-09-02T14:37:26.775Z,14.47
2022-09-02T14:40:12.713Z,14.61
2022-09-02T14:42:57.480Z,14.67
2022-09-02T14:45:27.919Z,14.68
2022-09-02T14:47:55.276Z,14.66
2022-09-02T14:50:27.555Z,14.68
2022-09-02T14:53:06.392Z,14.75
2022-09-02T14:55:52.735Z,14.81
2022-09-02T14:58:27.050Z,14.84
2022-09-02T15:01:00.254Z,14.88
2022-09-02T15:03:28.645Z,14.89
2022-09-02T15:05:55.753Z,14.84
2022-09-02T15:08:23.114Z,14.84
2022-09-02T15:10:50.474Z,14.88
2022-09-02T15:13:26.028Z,14.88
2022-09-02T15:15:55.752Z,14.85
2022-09-02T15:18:23.888Z,14.86
2022-09-02T15:20:51.593Z,14.58
2022-09-02T15:23:18.720Z,14.20
2022-09-02T15:25:45.422Z,14.26
2022-09-02T15:28:13.949Z,14.27
2022-09-02T15:30:40.815Z,14.04
2022-09-02T15:33:16.671Z,13.80
2022-09-02T15:35:45.053Z,13.88
2022-09-02T15:38:12.064Z,13.90
2022-09-02T15:40:39.094Z,13.86
2022-09-02T15:43:05.757Z,13.51
2022-09-02T15:45:32.576Z,13.58
2022-09-02T15:47:59.671Z,13.72
2022-09-02T15:50:28.286Z,13.79
2022-09-02T15:52:56.070Z,13.67
2022-09-02T15:55:29.039Z,13.53
2022-09-02T15:57:57.379Z,13.55
2022-09-02T16:00:27.657Z,13.57
2022-09-02T16:02:57.187Z,13.65
2022-09-02T16:05:24.347Z,13.36
2022-09-02T16:07:52.211Z,13.35
2022-09-02T16:10:19.091Z,13.39
2022-09-02T16:12:45.924Z,13.51
2022-09-02T16:15:12.732Z,13.27
2022-09-02T16:17:39.800Z,13.10
2022-09-02T16:20:07.095Z,13.19
2022-09-02T16:22:33.993Z,13.31
2022-09-02T16:25:01.799Z,13.18
2022-09-02T16:27:46.977Z,12.85
2022-09-02T16:30:13.638Z,13.05
2022-09-02T16:32:40.914Z,13.16
2022-09-02T16:35:08.637Z,13.05
2022-09-02T16:37:35.419Z,12.73
2022-09-02T16:40:03.736Z,12.90
2022-09-02T16:42:37.428Z,13.01
2022-09-02T16:45:08.124Z,12.82
2022-09-02T16:47:34.921Z,12.58
2022-09-02T16:50:04.297Z,12.75
2022-09-02T16:52:34.910Z,12.92
2022-09-02T16:55:01.612Z,12.62
2022-09-02T16:57:29.640Z,12.40
2022-09-02T16:59:57.007Z,12.60
2022-09-02T17:02:23.795Z,12.75
2022-09-02T17:04:50.565Z,12.40
2022-09-02T17:07:17.247Z,12.31
2022-09-02T17:09:43.924Z,12.48
2022-09-02T17:12:10.659Z,12.59
2022-09-02T17:14:37.388Z,12.08
2022-09-02T17:17:04.195Z,12.10
2022-09-02T17:19:32.767Z,12.30
2022-09-02T17:21:59.980Z,12.18
2022-09-02T17:24:31.623Z,11.85
2022-09-02T17:27:00.545Z,12.02
2022-09-02T17:29:48.903Z,12.20
2022-09-02T17:32:16.598Z,11.84
2022-09-02T17:34:43.343Z,11.84
2022-09-02T17:37:10.112Z,12.04
2022-09-02T17:39:37.068Z,11.95
2022-09-02T17:42:06.476Z,11.66
2022-09-02T17:44:36.498Z,11.85
2022-09-02T17:47:15.076Z,12.00
2022-09-02T17:49:44.482Z,11.61
2022-09-02T17:52:14.579Z,11.69
2022-09-02T17:54:41.795Z,11.83
2022-09-02T17:57:25.880Z,11.60
2022-09-02T18:00:07.801Z,11.51
2022-09-02T18:02:40.720Z,11.67
2022-09-02T18:05:19.352Z,11.52
2022-09-02T18:08:08.839Z,11.45
2022-09-02T18:10:57.798Z,11.65
2022-09-02T18:13:48.684Z,11.40
2022-09-02T18:16:33.486Z,11.33
2022-09-02T18:19:22.205Z,11.53
2022-09-02T18:22:06.597Z,11.21
2022-09-02T18:24:57.772Z,11.36
2022-09-02T18:27:44.332Z,11.49
2022-09-02T18:30:18.004Z,11.10
2022-09-02T18:32:59.699Z,11.29
2022-09-02T18:35:50.326Z,11.19
2022-09-02T18:38:51.291Z,11.05
2022-09-02T18:41:56.756Z,11.23
2022-09-02T18:44:29.460Z,10.94
2022-09-02T18:47:05.275Z,11.05
2022-09-02T18:49:34.384Z,11.22
2022-09-02T18:52:05.186Z,10.91
2022-09-02T18:54:42.341Z,11.00
2022-09-02T18:57:10.953Z,11.13
2022-09-02T18:59:52.263Z,10.72
2022-09-02T19:02:33.194Z,10.81
2022-09-02T19:05:01.776Z,10.59
2022-09-02T19:07:47.075Z,10.69
2022-09-02T19:10:14.281Z,10.70
2022-09-02T19:12:42.315Z,10.58
2022-09-02T19:15:13.093Z,10.68
2022-09-02T19:17:40.957Z,10.43
2022-09-02T19:20:08.903Z,10.55
2022-09-02T19:22:47.846Z,10.34
2022-09-02T19:25:20.447Z,10.38
2022-09-02T19:27:50.691Z,10.46
2022-09-02T19:30:21.152Z,10.43
2022-09-02T19:32:51.585Z,10.62
2022-09-02T19:35:23.083Z,10.44
2022-09-02T19:37:53.011Z,10.50
2022-09-02T19:40:28.905Z,10.35
2022-09-02T19:42:55.799Z,10.25
2022-09-02T19:45:23.322Z,10.44
2022-09-02T19:48:08.476Z,10.28
2022-09-02T19:50:38.561Z,10.48
2022-09-02T19:53:06.232Z,10.34
2022-09-02T19:55:33.909Z,10.38
2022-09-02T19:58:01.678Z,10.40
2022-09-02T20:00:29.644Z,10.12
2022-09-02T20:02:56.351Z,10.10
2022-09-02T20:05:25.314Z,10.30
2022-09-02T20:07:53.970Z,10.20
2022-09-02T20:10:20.768Z,10.33
2022-09-02T20:12:55.134Z,10.33
2022-09-02T20:15:21.988Z,10.13
2022-09-02T20:17:49.670Z,10.27
2022-09-02T20:20:19.965Z,10.09
2022-09-02T20:22:55.317Z,10.03
2022-09-02T20:25:30.955Z,10.12
2022-09-02T20:28:12.021Z,10.04
2022-09-02T20:30:44.707Z,10.18
2022-09-02T20:33:22.572Z,9.99
2022-09-02T20:36:02.610Z,10.19
2022-09-02T20:38:42.609Z,10.12
2022-09-02T20:41:24.468Z,10.08
2022-09-02T20:43:56.968Z,10.27
2022-09-02T20:46:48.222Z,10.11
2022-09-02T20:49:21.408Z,10.02
2022-09-02T20:52:15.647Z,10.04
2022-09-02T20:55:11.937Z,9.96
2022-09-02T20:57:39.456Z,10.15
2022-09-02T21:00:13.508Z,10.00
2022-09-02T21:03:05.581Z,10.21
2022-09-02T21:05:40.896Z,10.02
2022-09-02T21:08:22.450Z,10.15
2022-09-02T21:10:53.172Z,10.14
2022-09-02T21:13:53.841Z,10.13
2022-09-02T21:16:31.018Z,10.18
2022-09-02T21:19:17.144Z,9.99
2022-09-02T21:21:55.916Z,10.15
2022-09-02T21:24:32.073Z,10.14
2022-09-02T21:27:10.052Z,10.03
2022-09-02T21:30:02.336Z,10.21
2022-09-02T21:32:41.939Z,10.08
2022-09-02T21:35:13.329Z,10.03
2022-09-02T21:37:44.102Z,10.22
2022-09-02T21:40:18.137Z,9.96
2022-09-02T21:43:22.602Z,10.07
2022-09-02T21:45:52.077Z,10.02
2022-09-02T21:48:33.968Z,10.09
2022-09-02T21:51:05.074Z,10.16
2022-09-02T21:53:58.115Z,10.08
2022-09-02T21:56:49.584Z,10.21
2022-09-02T21:59:45.232Z,10.02
2022-09-02T22:02:20.389Z,10.07
2022-09-02T22:04:57.292Z,10.02
2022-09-02T22:07:32.125Z,10.01
2022-09-02T22:10:21.826Z,10.16
2022-09-02T22:12:52.498Z,9.97
2022-09-02T22:15:26.689Z,10.15
2022-09-02T22:18:04.772Z,10.00
2022-09-02T22:20:35.392Z,10.09
2022-09-02T22:23:10.400Z,10.07
2022-09-02T22:25:38.212Z,9.89
2022-09-02T22:28:19.504Z,10.04
2022-09-02T22:30:57.426Z,9.81
2022-09-02T22:33:30.924Z,9.94
2022-09-02T22:36:05.187Z,9.79
2022-09-02T22:38:44.698Z,9.80
2022-09-02T22:41:35.895Z,9.77
2022-09-02T22:44:11.733Z,9.60
2022-09-02T22:47:18.463Z,9.72
2022-09-02T22:50:12.367Z,9.56
2022-09-02T22:52:57.183Z,9.75
2022-09-02T22:55:48.132Z,9.56
2022-09-02T22:58:29.080Z,9.75
2022-09-02T23:01:20.312Z,9.63
2022-09-02T23:04:05.780Z,9.68
2022-09-02T23:06:33.524Z,9.65
2022-09-02T23:09:11.382Z,9.59
2022-09-02T23:11:41.137Z,9.70
2022-09-02T23:14:26.849Z,9.43
2022-09-02T23:17:20.549Z,9.59
2022-09-02T23:20:09.420Z,9.43
2022-09-02T23:22:48.512Z,9.54
2022-09-02T23:25:34.474Z,9.42
2022-09-02T23:28:19.142Z,9.30
2022-09-02T23:31:11.775Z,9.30
2022-09-02T23:33:49.457Z,9.24
2022-09-02T23:36:45.589Z,9.46
2022-09-02T23:39:23.397Z,9.25
2022-09-02T23:41:55.241Z,9.45
2022-09-02T23:44:23.038Z,9.28
2022-09-02T23:46:52.828Z,9.27
2022-09-02T23:49:43.510Z,9.31
2022-09-02T23:52:22.821Z,9.24
2022-09-02T23:55:04.852Z,9.43
2022-09-02T23:57:44.718Z,9.25
